Time;durP1;ratioP1;P1;durP2;ratioP2;P2;SDS_P1;SDS_P2;PMS_P1;PMS_P2;Temp;Humidity;BMP_temperature;BMP_pressure;BME280_temperature;BME280_humidity;BME280_pressure;Samples;Min_cycle;Max_cycle;Signal;HPM_P1;HPM_P2
2021/11/27 00:02:07;;;;;;;1999.90;999.90;;;;;;;1.57;100.00;162817.75;4999199;28;20152;-64
2021/11/27 00:04:34;;;;;;;1999.90;999.90;;;;;;;1.90;100.00;162904.00;5003182;28;20048;-64
2021/11/27 00:07:00;;;;;;;1999.90;999.90;;;;;;;1.95;100.00;162917.72;5004315;28;20058;-64
2021/11/27 00:09:27;;;;;;;1999.90;999.90;;;;;;;2.03;100.00;162938.25;5002410;28;20136;-64
2021/11/27 00:11:54;;;;;;;1999.90;999.90;;;;;;;1.83;100.00;162884.84;4992147;28;20064;-64
2021/11/27 00:14:20;;;;;;;1999.90;999.90;;;;;;;1.92;100.00;162909.47;5001583;28;20054;-64
2021/11/27 00:16:47;;;;;;;1999.90;999.90;;;;;;;2.20;100.00;162984.78;4999841;28;20046;-63
2021/11/27 00:19:13;;;;;;;1999.90;999.90;;;;;;;2.49;100.00;163060.09;5003393;28;20451;-63
2021/11/27 00:21:42;;;;;;;1999.90;999.90;;;;;;;2.00;100.00;162931.41;5007384;28;20184;-63
2021/11/27 00:24:09;;;;;;;1999.90;999.90;;;;;;;2.24;100.00;162994.38;4998629;28;20046;-63
2021/11/27 00:26:35;;;;;;;1999.90;999.90;;;;;;;2.38;100.00;163032.75;4998979;28;20449;-63
2021/11/27 00:29:03;;;;;;;1999.90;999.90;;;;;;;2.31;100.00;163013.56;4994809;28;20060;-63
2021/11/27 00:31:30;;;;;;;1999.90;999.90;;;;;;;1.86;100.00;162893.06;5001613;28;20092;-63
2021/11/27 00:33:57;;;;;;;1999.90;999.90;;;;;;;2.14;100.00;162967.00;4996669;28;20408;-63
2021/11/27 00:36:25;;;;;;;1999.90;999.90;;;;;;;2.09;100.00;162956.03;5005673;28;20325;-64
2021/11/27 00:38:53;;;;;;;1999.90;999.90;;;;;;;2.18;100.00;162977.97;4997115;28;20350;-63
2021/11/27 00:41:20;;;;;;;1999.90;999.90;;;;;;;1.77;100.00;162869.78;5000540;28;20050;-63
2021/11/27 00:43:47;;;;;;;1999.90;999.90;;;;;;;1.82;100.00;162883.50;5006908;28;20056;-63
2021/11/27 00:46:15;;;;;;;1999.90;999.90;;;;;;;1.75;100.00;162865.66;5000112;28;20049;-63
2021/11/27 00:48:41;;;;;;;1999.90;999.90;;;;;;;1.80;100.00;162876.63;4998107;28;20053;-63
2021/11/27 00:51:15;;;;;;;1999.90;999.90;;;;;;;1.40;100.00;162771.25;5002473;28;20050;-63
2021/11/27 00:53:41;;;;;;;1999.90;999.90;;;;;;;1.65;100.00;162838.28;4994550;28;20092;-64
2021/11/27 00:56:08;;;;;;;1999.90;999.90;;;;;;;1.79;100.00;162873.88;4994704;28;20366;-64
2021/11/27 00:58:35;;;;;;;1999.90;999.90;;;;;;;1.90;100.00;162904.00;4995733;28;20054;-64
2021/11/27 01:01:09;;;;;;;1999.90;999.90;;;;;;;1.66;100.00;162841.03;4995439;28;20054;-63
2021/11/27 01:03:38;;;;;;;1999.90;999.90;;;;;;;1.64;100.00;162835.59;5001604;28;20052;-63
2021/11/27 01:06:08;;;;;;;1999.90;999.90;;;;;;;1.82;100.00;162882.13;5006096;28;20050;-64
2021/11/27 01:08:35;;;;;;;1999.90;999.90;;;;;;;1.85;100.00;162890.34;4995340;28;20046;-63
2021/11/27 01:11:18;;;;;;;1999.90;999.90;;;;;;;2.20;100.00;162984.78;4994740;28;20054;-62
2021/11/27 01:13:47;;;;;;;1999.90;999.90;;;;;;;2.46;100.00;163054.63;4994386;28;20491;-61
2021/11/27 01:16:16;;;;;;;1999.90;999.90;;;;;;;2.49;100.00;163060.09;5006561;28;20050;-62
2021/11/27 01:18:44;;;;;;;1999.90;999.90;;;;;;;1.90;100.00;162905.38;4998919;28;20212;-61
2021/11/27 01:21:14;;;;;;;1999.90;999.90;;;;;;;2.03;100.00;162938.25;4998369;28;20057;-61
2021/11/27 01:23:41;;;;;;;1999.90;999.90;;;;;;;1.91;100.00;162908.13;4991780;28;20058;-62
2021/11/27 01:26:10;;;;;;;1999.90;999.90;;;;;;;1.94;100.00;162914.97;5002034;28;20605;-62
2021/11/27 01:28:37;;;;;;;1999.90;999.90;;;;;;;2.06;100.00;162947.81;4999106;28;20052;-62
2021/11/27 01:31:04;;;;;;;1999.90;999.90;;;;;;;1.77;100.00;162869.78;4991511;28;20109;-62
2021/11/27 01:33:33;;;;;;;1999.90;999.90;;;;;;;1.64;100.00;162835.59;5000815;28;20069;-62
2021/11/27 01:36:01;;;;;;;1999.90;999.90;;;;;;;2.02;100.00;162936.84;4999671;28;20050;-62
2021/11/27 01:38:28;;;;;;;1999.90;999.90;;;;;;;1.84;100.00;162887.59;5000157;28;20049;-62
2021/11/27 01:40:55;;;;;;;1999.90;999.90;;;;;;;1.72;100.00;162857.47;4999184;28;20058;-62
2021/11/27 01:43:23;;;;;;;1999.90;999.90;;;;;;;1.70;100.00;162852.00;5003041;28;20486;-63
2021/11/27 01:45:50;;;;;;;1999.90;999.90;;;;;;;1.89;100.00;162901.25;4992478;28;20065;-62
2021/11/27 01:48:19;;;;;;;1999.90;999.90;;;;;;;1.83;100.00;162886.25;5002822;28;20070;-62
2021/11/27 01:50:54;;;;;;;1999.90;999.90;;;;;;;1.69;100.00;162849.25;4994407;28;20054;-62
2021/11/27 01:53:23;;;;;;;1999.90;999.90;;;;;;;1.87;100.00;162895.81;4991921;28;20435;-62
2021/11/27 01:55:53;;;;;;;1999.90;999.90;;;;;;;1.57;100.00;162816.41;4993667;28;20063;-62
2021/11/27 01:58:20;;;;;;;1999.90;999.90;;;;;;;1.52;100.00;162804.09;4997750;28;20470;-62
2021/11/27 02:00:51;;;;;;;1999.90;999.90;;;;;;;1.60;100.00;162824.63;4997149;28;20049;-62
2021/11/27 02:03:18;;;;;;;1999.90;999.90;;;;;;;1.62;100.00;162830.06;4995719;28;20455;-62
2021/11/27 02:05:45;;;;;;;1999.90;999.90;;;;;;;1.88;100.00;162898.56;4997626;28;20073;-63
2021/11/27 02:08:12;;;;;;;1999.90;999.90;;;;;;;1.77;100.00;162869.78;4995593;28;20054;-63
2021/11/27 02:10:39;;;;;;;1999.90;999.90;;;;;;;2.01;100.00;162934.16;4995981;28;20046;-63
2021/11/27 02:13:05;;;;;;;1999.90;999.90;;;;;;;2.46;100.00;163054.63;4996625;28;20046;-62
2021/11/27 02:15:32;;;;;;;1999.90;999.90;;;;;;;2.38;100.00;163031.34;4999035;28;20045;-63
2021/11/27 02:18:00;;;;;;;1999.90;999.90;;;;;;;2.31;100.00;163012.16;4995095;28;20058;-62
2021/11/27 02:20:26;;;;;;;1999.90;999.90;;;;;;;2.10;100.00;162958.78;4996438;28;20058;-62
2021/11/27 02:22:53;;;;;;;1999.90;999.90;;;;;;;2.18;100.00;162977.97;4999244;28;20058;-62
2021/11/27 02:25:22;;;;;;;1999.90;999.90;;;;;;;2.55;100.00;163076.56;4998929;28;20054;-63
2021/11/27 02:27:52;;;;;;;1999.90;999.90;;;;;;;2.68;100.00;163112.19;5008884;28;20327;-62
2021/11/27 02:30:21;;;;;;;1999.90;999.90;;;;;;;2.73;100.00;163125.88;4998862;28;20452;-62
2021/11/27 02:32:47;;;;;;;1999.90;999.90;;;;;;;2.71;100.00;163120.41;5003658;28;20046;-62
2021/11/27 02:35:14;;;;;;;1999.90;999.90;;;;;;;2.93;100.00;163177.91;5010111;28;20046;-62
2021/11/27 02:37:41;;;;;;;1999.90;999.90;;;;;;;2.78;100.00;163139.59;5005080;28;20046;-62
2021/11/27 02:40:09;;;;;;;1999.90;999.90;;;;;;;3.03;100.00;163203.97;5007711;28;20057;-63
2021/11/27 02:42:36;;;;;;;1999.90;999.90;;;;;;;2.95;100.00;163184.78;4999527;28;20046;-63
2021/11/27 02:45:07;;;;;;;1999.90;999.90;;;;;;;3.15;100.00;163238.19;5005062;28;20054;-63
2021/11/27 02:47:34;;;;;;;1999.90;999.90;;;;;;;3.14;100.00;163234.09;5005877;28;20046;-63
2021/11/27 02:50:02;;;;;;;1999.90;999.90;;;;;;;3.23;100.00;163258.78;5007067;28;20050;-63
2021/11/27 02:52:30;;;;;;;1999.90;999.90;;;;;;;2.96;100.00;163187.53;5005365;28;20073;-62
2021/11/27 02:54:57;;;;;;;1999.90;999.90;;;;;;;2.93;100.00;163177.91;4999447;28;20053;-63
2021/11/27 02:57:29;;;;;;;1999.90;999.90;;;;;;;2.86;100.00;163158.72;5001135;28;20046;-62
2021/11/27 02:59:56;;;;;;;;;;;;;;;2.85;100.00;163156.03;5005351;28;20074;-63
2021/11/27 03:02:23;;;;;;;1999.90;999.90;;;;;;;2.93;100.00;163179.31;5009229;28;19921;-63
2021/11/27 03:04:49;;;;;;;1999.90;999.90;;;;;;;3.22;100.00;163254.69;5002846;28;20316;-63
2021/11/27 03:07:17;;;;;;;1999.90;999.90;;;;;;;3.17;100.00;163243.72;5006675;28;20054;-63
2021/11/27 03:09:43;;;;;;;1999.90;999.90;;;;;;;2.89;100.00;163166.94;5000640;28;20417;-63
2021/11/27 03:12:11;;;;;;;1999.90;999.90;;;;;;;3.38;100.00;163298.53;5007306;28;20046;-63
2021/11/27 03:14:38;;;;;;;1999.90;999.90;;;;;;;3.65;100.00;163369.81;4999559;28;20054;-63
2021/11/27 03:17:06;;;;;;;1999.90;999.90;;;;;;;3.28;100.00;163271.13;5002416;28;20104;-63
2021/11/27 03:19:36;;;;;;;1999.90;999.90;;;;;;;3.45;100.00;163317.69;5000587;28;20042;-63
2021/11/27 03:22:03;;;;;;;1999.90;999.90;;;;;;;3.50;100.00;163331.41;5005120;28;20381;-63
2021/11/27 03:24:30;;;;;;;1999.90;999.90;;;;;;;3.22;100.00;163254.69;5008156;28;20523;-63
2021/11/27 03:26:57;;;;;;;1999.90;999.90;;;;;;;3.28;100.00;163271.13;4997948;28;20099;-63
2021/11/27 03:29:24;;;;;;;1999.90;999.90;;;;;;;3.65;100.00;163371.16;5001378;28;20057;-63
2021/11/27 03:32:18;;;;;;;1999.90;999.90;;;;;;;3.59;100.00;163353.31;5002234;28;20049;-63
2021/11/27 03:34:46;;;;;;;1999.90;999.90;;;;;;;2.99;100.00;163194.34;5010013;28;20425;-63
2021/11/27 03:37:13;;;;;;;1999.90;999.90;;;;;;;2.75;100.00;163129.97;5003308;28;20137;-63
2021/11/27 03:39:40;;;;;;;1999.90;999.90;;;;;;;2.91;100.00;163173.81;4998699;28;20136;-63
2021/11/27 03:42:10;;;;;;;1999.90;999.90;;;;;;;3.11;100.00;163225.88;5006804;28;20053;-63
2021/11/27 03:44:37;;;;;;;1999.90;999.90;;;;;;;3.58;100.00;163350.59;5004859;28;20050;-63
2021/11/27 03:47:05;;;;;;;1999.90;999.90;;;;;;;3.14;100.00;163235.50;5008522;28;20510;-63
2021/11/27 03:49:32;;;;;;;1999.90;999.90;;;;;;;3.48;100.00;163324.53;4998775;28;20061;-63
2021/11/27 03:52:00;;;;;;;1999.90;999.90;;;;;;;3.51;100.00;163334.16;4997830;28;20123;-63
2021/11/27 03:54:27;;;;;;;1999.90;999.90;;;;;;;3.13;100.00;163231.38;5002790;28;20107;-63
2021/11/27 03:56:54;;;;;;;1999.90;999.90;;;;;;;3.09;100.00;163221.75;5003966;28;20134;-63
2021/11/27 03:59:21;;;;;;;1999.90;999.90;;;;;;;2.86;100.00;163160.13;4995744;28;20054;-63
2021/11/27 04:01:49;;;;;;;1999.90;999.90;;;;;;;2.89;100.00;163168.34;5001814;28;20513;-63
2021/11/27 04:04:17;;;;;;;1999.90;999.90;;;;;;;2.72;100.00;163123.09;5004197;28;20046;-63
2021/11/27 04:06:44;;;;;;;1999.90;999.90;;;;;;;2.77;100.00;163136.84;5004369;28;20390;-63
2021/11/27 04:09:11;;;;;;;1999.90;999.90;;;;;;;2.82;100.00;163150.50;5003146;28;20050;-63
2021/11/27 04:11:39;;;;;;;1999.90;999.90;;;;;;;2.67;100.00;163109.44;4996624;28;20283;-62
2021/11/27 04:14:07;;;;;;;1999.90;999.90;;;;;;;3.07;100.00;163214.94;4998926;28;20296;-63
2021/11/27 04:16:34;;;;;;;1999.90;999.90;;;;;;;3.25;100.00;163262.91;5003059;28;20050;-63
2021/11/27 04:19:00;;;;;;;1999.90;999.90;;;;;;;3.24;100.00;163261.50;5008091;28;20058;-63
2021/11/27 04:21:27;;;;;;;1999.90;999.90;;;;;;;3.16;100.00;163239.59;5003322;28;20050;-63
2021/11/27 04:23:53;;;;;;;1999.90;999.90;;;;;;;3.28;100.00;163271.13;5007609;28;20092;-63
2021/11/27 04:26:21;;;;;;;1999.90;999.90;;;;;;;2.96;100.00;163186.13;4999372;28;20517;-63
2021/11/27 04:28:49;;;;;;;1999.90;999.90;;;;;;;2.52;100.00;163068.38;5002269;28;20085;-64
2021/11/27 04:31:18;;;;;;;1999.90;999.90;;;;;;;2.33;100.00;163019.03;5002492;28;20054;-63
2021/11/27 04:33:46;;;;;;;1999.90;999.90;;;;;;;2.66;100.00;163106.69;4999942;28;20042;-63
2021/11/27 04:36:13;;;;;;;1999.90;999.90;;;;;;;2.59;100.00;163087.50;4994805;28;20069;-63
2021/11/27 04:38:40;;;;;;;1999.90;999.90;;;;;;;2.81;100.00;163147.81;4998399;28;20081;-63
2021/11/27 04:41:07;;;;;;;1999.90;999.90;;;;;;;2.89;100.00;163168.34;5001308;28;20077;-64
2021/11/27 04:43:35;;;;;;;1999.90;999.90;;;;;;;2.96;100.00;163187.53;5005207;28;20069;-63
2021/11/27 04:46:02;;;;;;;1999.90;999.90;;;;;;;3.28;100.00;163271.13;5003059;28;20096;-63
2021/11/27 04:48:29;;;;;;;1999.90;999.90;;;;;;;3.43;100.00;163312.22;5004928;28;20371;-63
2021/11/27 04:50:57;;;;;;;1999.90;999.90;;;;;;;2.78;100.00;163138.19;5006084;28;20104;-63
2021/11/27 04:53:26;;;;;;;1999.90;999.90;;;;;;;3.37;100.00;163295.78;5005766;28;20062;-63
2021/11/27 04:55:54;;;;;;;1999.90;999.90;;;;;;;3.56;100.00;163345.09;5004956;28;20058;-63
2021/11/27 04:58:21;;;;;;;1999.90;999.90;;;;;;;3.79;100.00;163406.81;5002614;28;20341;-63
2021/11/27 05:00:51;;;;;;;1999.90;999.90;;;;;;;3.51;100.00;163334.16;5005127;28;20386;-63
2021/11/27 05:03:19;;;;;;;1999.90;999.90;;;;;;;3.22;100.00;163254.69;5006903;28;20053;-63
2021/11/27 05:05:45;;;;;;;1999.90;999.90;;;;;;;2.79;100.00;163142.28;4999812;28;20070;-63
2021/11/27 05:08:12;;;;;;;1999.90;999.90;;;;;;;2.54;100.00;163075.16;5002090;28;20100;-64
2021/11/27 05:10:38;;;;;;;1999.90;999.90;;;;;;;2.40;100.00;163036.84;5001002;28;20050;-63
2021/11/27 05:13:05;;;;;;;1999.90;999.90;;;;;;;2.76;100.00;163134.09;4999948;28;20112;-63
2021/11/27 05:15:31;;;;;;;1999.90;999.90;;;;;;;3.16;100.00;163239.59;5009136;28;20111;-63
2021/11/27 05:17:58;;;;;;;1999.90;999.90;;;;;;;3.03;100.00;163203.97;5000793;28;20049;-64
2021/11/27 05:20:25;;;;;;;1999.90;999.90;;;;;;;2.87;100.00;163161.47;5004630;28;20061;-64
2021/11/27 05:22:51;;;;;;;1999.90;999.90;;;;;;;2.79;100.00;163142.28;5005710;28;20042;-64
2021/11/27 05:25:18;;;;;;;1999.90;999.90;;;;;;;2.95;100.00;163183.44;5003065;28;20113;-63
2021/11/27 05:27:45;;;;;;;1999.90;999.90;;;;;;;2.67;100.00;163108.09;5006124;28;20316;-64
2021/11/27 05:30:14;;;;;;;1999.90;999.90;;;;;;;2.91;100.00;163173.81;4999793;28;20054;-63
2021/11/27 05:35:17;;;;;;;1999.90;999.90;;;;;;;3.02;100.00;163202.56;4996347;28;20046;-64
2021/11/27 05:37:45;;;;;;;1999.90;999.90;;;;;;;3.12;100.00;163229.97;5003643;28;20076;-64
2021/11/27 05:40:13;;;;;;;1999.90;999.90;;;;;;;2.92;100.00;163175.22;4997011;28;20042;-64
2021/11/27 05:42:39;;;;;;;1999.90;999.90;;;;;;;3.21;100.00;163253.28;5001977;28;20185;-64
2021/11/27 05:45:06;;;;;;;1999.90;999.90;;;;;;;3.18;100.00;163246.41;5004215;28;20096;-64
2021/11/27 05:47:33;;;;;;;1999.90;999.90;;;;;;;3.31;100.00;163280.69;5005119;28;20053;-64
2021/11/27 05:50:00;;;;;;;1999.90;999.90;;;;;;;3.10;100.00;163223.16;5001436;28;20417;-64
2021/11/27 05:52:26;;;;;;;1999.90;999.90;;;;;;;2.92;100.00;163175.22;5000892;28;20104;-64
2021/11/27 05:54:53;;;;;;;1999.90;999.90;;;;;;;3.02;100.00;163202.56;5001813;28;20050;-64
2021/11/27 05:57:19;;;;;;;1999.90;999.90;;;;;;;2.95;100.00;163184.78;5007360;28;20153;-64
2021/11/27 05:59:46;;;;;;;1999.90;999.90;;;;;;;2.47;100.00;163057.38;5010616;28;20085;-64
2021/11/27 06:02:14;;;;;;;1999.90;999.90;;;;;;;2.57;100.00;163082.03;5002114;28;20050;-64
2021/11/27 06:04:41;;;;;;;1999.90;999.90;;;;;;;2.50;100.00;163062.84;5004732;28;20052;-64
2021/11/27 06:07:07;;;;;;;1999.90;999.90;;;;;;;2.09;100.00;162956.03;5005925;28;20050;-64
2021/11/27 06:09:36;;;;;;;1999.90;999.90;;;;;;;2.46;100.00;163054.63;5003499;28;20081;-64
2021/11/27 06:12:03;;;;;;;1999.90;999.90;;;;;;;2.01;100.00;162932.75;5001035;28;20085;-64
2021/11/27 06:14:32;;;;;;;1999.90;999.90;;;;;;;2.19;100.00;162980.66;5000611;28;20050;-64
2021/11/27 06:16:59;;;;;;;1999.90;999.90;;;;;;;2.37;100.00;163030.00;5003677;28;20077;-64
2021/11/27 06:19:26;;;;;;;1999.90;999.90;;;;;;;2.52;100.00;163069.72;5008138;28;20093;-64
2021/11/27 06:21:53;;;;;;;1999.90;999.90;;;;;;;2.51;100.00;163065.59;5003004;28;20090;-64
2021/11/27 06:24:19;;;;;;;1999.90;999.90;;;;;;;2.64;100.00;163101.22;5002053;28;20046;-64
2021/11/27 06:26:46;;;;;;;1999.90;999.90;;;;;;;2.31;100.00;163013.56;5000884;28;20330;-64
2021/11/27 06:29:12;;;;;;;1999.90;999.90;;;;;;;2.18;100.00;162979.31;5004591;28;20046;-64
2021/11/27 06:31:39;;;;;;;1999.90;999.90;;;;;;;2.26;100.00;162999.84;4997436;28;20131;-64
2021/11/27 06:34:06;;;;;;;1999.90;999.90;;;;;;;1.97;100.00;162921.84;5000618;28;20077;-64
2021/11/27 06:36:32;;;;;;;1999.90;999.90;;;;;;;2.11;100.00;162961.53;5007031;28;20049;-64
2021/11/27 06:38:59;;;;;;;1999.90;999.90;;;;;;;2.18;100.00;162977.97;5001691;28;20435;-64
2021/11/27 06:41:25;;;;;;;1999.90;999.90;;;;;;;2.01;100.00;162934.16;5006043;28;20054;-64
2021/11/27 06:43:52;;;;;;;1999.90;999.90;;;;;;;2.05;100.00;162943.72;4997971;28;20086;-64
2021/11/27 06:46:18;;;;;;;1999.90;999.90;;;;;;;2.18;100.00;162977.97;5001132;28;20458;-64
2021/11/27 06:48:45;;;;;;;1999.90;999.90;;;;;;;2.49;100.00;163060.09;5007759;28;20046;-64
2021/11/27 06:51:13;;;;;;;1999.90;999.90;;;;;;;2.23;100.00;162991.63;5003482;28;20069;-64
2021/11/27 06:53:40;;;;;;;1999.90;999.90;;;;;;;2.33;100.00;163019.03;5002292;28;20121;-64
2021/11/27 06:56:07;;;;;;;1999.90;999.90;;;;;;;1.78;100.00;162872.53;5000393;28;20041;-64
2021/11/27 06:58:34;;;;;;;1999.90;999.90;;;;;;;1.87;100.00;162897.16;5000489;28;20120;-64
2021/11/27 07:01:01;;;;;;;1999.90;999.90;;;;;;;2.12;100.00;162962.91;5003226;28;20102;-64
2021/11/27 07:03:29;;;;;;;1999.90;999.90;;;;;;;2.08;100.00;162953.31;4998543;28;20436;-64
2021/11/27 07:05:55;;;;;;;1999.90;999.90;;;;;;;2.19;100.00;162980.66;4998161;28;20079;-64
2021/11/27 07:08:22;;;;;;;1999.90;999.90;;;;;;;2.36;100.00;163025.88;5008289;28;20334;-64
2021/11/27 07:10:50;;;;;;;1999.90;999.90;;;;;;;1.96;100.00;162920.44;4999523;28;20055;-64
2021/11/27 07:13:18;;;;;;;1999.90;999.90;;;;;;;1.81;100.00;162879.38;5004199;28;20050;-64
2021/11/27 07:15:46;;;;;;;1999.90;999.90;;;;;;;1.43;100.00;162779.47;5008325;28;20360;-64
2021/11/27 07:18:13;;;;;;;1999.90;999.90;;;;;;;1.49;100.00;162794.50;5002966;28;20105;-64
2021/11/27 07:20:40;;;;;;;1999.90;999.90;;;;;;;1.29;100.00;162742.50;5009402;28;20049;-64
2021/11/27 07:23:08;;;;;;;1999.90;999.90;;;;;;;1.04;100.00;162675.44;4999655;28;20162;-64
2021/11/27 07:25:37;;;;;;;1999.90;999.90;;;;;;;1.40;100.00;162772.63;5002921;28;20080;-64
2021/11/27 07:28:09;;;;;;;1999.90;999.90;;;;;;;1.75;100.00;162865.66;5003954;28;20062;-64
2021/11/27 07:30:36;;;;;;;1999.90;999.90;;;;;;;1.90;100.00;162904.00;4999116;28;20124;-64
2021/11/27 07:33:03;;;;;;;1999.90;999.90;;;;;;;1.91;100.00;162906.78;5001242;28;20050;-64
2021/11/27 07:35:29;;;;;;;1999.90;999.90;;;;;;;1.69;100.00;162849.25;5002370;28;20439;-65
2021/11/27 07:37:56;;;;;;;1999.90;999.90;;;;;;;1.89;100.00;162901.25;5003411;28;20133;-64
2021/11/27 07:40:23;;;;;;;1999.90;999.90;;;;;;;1.42;100.00;162776.72;5005803;28;20411;-64
2021/11/27 07:42:52;;;;;;;1999.90;999.90;;;;;;;1.61;100.00;162827.38;4998091;28;20399;-64
2021/11/27 07:45:20;;;;;;;1999.90;999.90;;;;;;;1.67;100.00;162843.78;5007045;28;20049;-64
2021/11/27 07:47:47;;;;;;;1999.90;999.90;;;;;;;1.75;100.00;162865.66;5004764;28;20041;-64
2021/11/27 07:50:15;;;;;;;1999.90;999.90;;;;;;;1.78;100.00;162871.19;5002689;28;20047;-64
2021/11/27 07:52:42;;;;;;;1999.90;999.90;;;;;;;2.09;100.00;162954.69;5004710;28;20111;-64
2021/11/27 07:55:09;;;;;;;1999.90;999.90;;;;;;;1.76;100.00;162868.41;4999289;28;20065;-64
2021/11/27 07:57:36;;;;;;;1999.90;999.90;;;;;;;2.16;100.00;162973.88;5003059;28;20431;-65
2021/11/27 08:00:04;;;;;;;1999.90;999.90;;;;;;;2.65;100.00;163103.97;5002010;28;20058;-65
2021/11/27 08:02:30;;;;;;;1999.90;999.90;;;;;;;2.75;100.00;163131.31;5004898;28;20050;-64
2021/11/27 08:04:57;;;;;;;1999.90;999.90;;;;;;;2.97;100.00;163190.25;4997929;28;20038;-64
2021/11/27 08:07:23;;;;;;;1999.90;999.90;;;;;;;3.11;100.00;163227.28;4997578;28;20400;-65
2021/11/27 08:09:50;;;;;;;1999.90;999.90;;;;;;;3.22;100.00;163254.69;4997934;28;20440;-64
2021/11/27 08:12:16;;;;;;;1999.90;999.90;;;;;;;3.40;100.00;163304.00;5005547;28;20108;-65
2021/11/27 08:14:43;;;;;;;1999.90;999.90;;;;;;;3.10;100.00;163223.16;5002922;28;20042;-65
2021/11/27 08:17:09;;;;;;;1999.90;999.90;;;;;;;3.09;100.00;163221.75;5003526;28;20131;-65
2021/11/27 08:19:36;;;;;;;1999.90;999.90;;;;;;;3.26;100.00;163267.00;4997500;28;20197;-64
2021/11/27 08:22:03;;;;;;;1999.90;999.90;;;;;;;3.23;100.00;163257.38;5003511;28;20509;-65
2021/11/27 08:24:29;;;;;;;1999.90;999.90;;;;;;;2.74;100.00;163128.63;5006067;28;20050;-65
2021/11/27 08:26:56;;;;;;;1999.90;999.90;;;;;;;2.78;100.00;163139.59;5002345;28;20046;-65
2021/11/27 08:29:22;;;;;;;1999.90;999.90;;;;;;;3.16;100.00;163240.94;4995099;28;20120;-65
2021/11/27 08:31:49;;;;;;;1999.90;999.90;;;;;;;2.69;100.00;163114.91;4998141;28;20131;-64
2021/11/27 08:34:16;;;;;;;1999.90;999.90;;;;;;;2.58;100.00;163086.16;5001726;28;20049;-64
2021/11/27 08:36:42;;;;;;;1999.90;999.90;;;;;;;2.69;100.00;163113.53;4997406;28;20050;-64
2021/11/27 08:39:09;;;;;;;1999.90;999.90;;;;;;;2.68;100.00;163112.19;5002897;28;20398;-64
2021/11/27 08:41:37;;;;;;;1999.90;999.90;;;;;;;3.02;100.00;163202.56;4996676;28;20050;-64
2021/11/27 08:44:04;;;;;;;1999.90;999.90;;;;;;;2.99;100.00;163195.75;4995895;28;20050;-64
2021/11/27 08:46:31;;;;;;;1999.90;999.90;;;;;;;2.79;100.00;163142.28;5001432;28;20050;-64
2021/11/27 08:48:58;;;;;;;1999.90;999.90;;;;;;;2.44;100.00;163049.19;5000362;28;20078;-64
2021/11/27 08:51:25;;;;;;;1999.90;999.90;;;;;;;2.35;100.00;163023.13;4993363;28;20359;-65
2021/11/27 08:53:51;;;;;;;1999.90;999.90;;;;;;;2.09;100.00;162956.03;4997489;28;20695;-64
2021/11/27 08:56:18;;;;;;;1999.90;999.90;;;;;;;1.95;100.00;162917.72;4996617;28;20062;-65
2021/11/27 08:58:45;;;;;;;1999.90;999.90;;;;;;;2.10;100.00;162958.78;4997523;28;20043;-65
2021/11/27 09:01:12;;;;;;;1999.90;999.90;;;;;;;1.89;100.00;162902.66;5005141;28;20096;-65
2021/11/27 09:03:40;;;;;;;1999.90;999.90;;;;;;;1.81;100.00;162879.38;4999080;28;20047;-65
2021/11/27 09:06:07;;;;;;;1999.90;999.90;;;;;;;1.75;100.00;162865.66;5002285;28;20051;-65
2021/11/27 09:08:37;;;;;;;1999.90;999.90;;;;;;;1.66;100.00;162841.03;5000714;28;20457;-65
2021/11/27 09:11:05;;;;;;;1999.90;999.90;;;;;;;1.71;100.00;162854.75;4997132;28;20066;-65
2021/11/27 09:13:34;;;;;;;1999.90;999.90;;;;;;;1.84;100.00;162888.94;4994730;28;20046;-65
2021/11/27 09:16:02;;;;;;;1999.90;999.90;;;;;;;1.73;100.00;162860.22;4996230;28;20348;-65
2021/11/27 09:18:49;;;;;;;1999.90;999.90;;;;;;;1.82;100.00;162882.13;5001465;28;20358;-65
2021/11/27 09:21:15;;;;;;;1999.90;999.90;;;;;;;1.97;100.00;162923.19;4998472;28;20073;-65
2021/11/27 09:23:42;;;;;;;1999.90;999.90;;;;;;;2.47;100.00;163056.00;5003296;28;20077;-65
2021/11/27 09:26:09;;;;;;;1999.90;999.90;;;;;;;2.28;100.00;163005.34;4994180;28;20050;-65
2021/11/27 09:28:35;;;;;;;1999.90;999.90;;;;;;;2.40;100.00;163038.22;4997146;28;20104;-65
2021/11/27 09:31:02;;;;;;;1999.90;999.90;;;;;;;2.15;100.00;162969.75;4998291;28;20058;-65
2021/11/27 09:33:30;;;;;;;1999.90;999.90;;;;;;;2.60;100.00;163090.25;4999159;28;20563;-65
2021/11/27 09:36:03;;;;;;;1999.90;999.90;;;;;;;2.36;100.00;163027.25;4999335;28;20042;-65
2021/11/27 09:38:31;;;;;;;1999.90;999.90;;;;;;;2.10;100.00;162958.78;5002386;28;20959;-65
2021/11/27 09:41:18;;;;;;;1999.90;999.90;;;;;;;2.16;100.00;162973.88;5000909;28;20046;-65
2021/11/27 09:43:47;;;;;;;1999.90;999.90;;;;;;;2.16;100.00;162973.88;4998083;28;20054;-64
2021/11/27 09:46:18;;;;;;;1999.90;999.90;;;;;;;2.14;100.00;162967.00;4999120;28;20046;-65
2021/11/27 09:48:49;;;;;;;1999.90;999.90;;;;;;;2.31;100.00;163013.56;5000959;28;20077;-65
2021/11/27 09:51:16;;;;;;;1999.90;999.90;;;;;;;2.28;100.00;163006.72;5000331;28;20243;-64
2021/11/27 09:53:42;;;;;;;1999.90;999.90;;;;;;;2.25;100.00;162998.50;5000638;28;20549;-64
2021/11/27 09:56:16;;;;;;;1999.90;999.90;;;;;;;2.33;100.00;163017.69;5001180;28;20046;-64
2021/11/27 09:58:44;;;;;;;1999.90;999.90;;;;;;;2.23;100.00;162993.03;5000077;28;20497;-64
2021/11/27 10:01:12;;;;;;;1999.90;999.90;;;;;;;2.20;100.00;162984.78;5000930;28;20115;-64
2021/11/27 10:03:41;;;;;;;1999.90;999.90;;;;;;;2.50;100.00;163062.84;5002793;28;20066;-64
2021/11/27 10:06:08;;;;;;;1999.90;999.90;;;;;;;2.16;100.00;162972.47;5000007;28;20049;-64
2021/11/27 10:08:35;;;;;;;1999.90;999.90;;;;;;;2.49;100.00;163060.09;5000200;28;20159;-64
2021/11/27 10:11:02;;;;;;;1999.90;999.90;;;;;;;2.68;100.00;163110.78;5001179;28;20451;-64
2021/11/27 10:13:29;;;;;;;1999.90;999.90;;;;;;;2.89;100.00;163166.94;4999409;28;20161;-64
2021/11/27 10:15:56;;;;;;;1999.90;999.90;;;;;;;3.10;100.00;163224.50;5003402;28;20069;-65
2021/11/27 10:18:24;;;;;;;1999.90;999.90;;;;;;;3.33;100.00;163284.78;5003830;28;20074;-65
2021/11/27 10:21:14;;;;;;;1999.90;999.90;;;;;;;3.67;100.00;163376.63;5001960;28;20438;-65
2021/11/27 10:23:41;;;;;;;1999.90;999.90;;;;;;;3.77;100.00;163401.34;5002497;28;20077;-65
2021/11/27 10:26:08;;;;;;;1999.90;999.90;;;;;;;3.95;100.00;163449.31;5003035;28;20081;-65
2021/11/27 10:28:35;;;;;;;1999.90;999.90;;;;;;;3.78;100.00;163405.44;5002901;28;20046;-64
2021/11/27 10:31:05;;;;;;;1999.90;999.90;;;;;;;3.84;99.82;163420.50;5002397;28;20090;-65
2021/11/27 10:33:39;;;;;;;1999.90;999.90;;;;;;;3.86;99.73;163427.34;5003598;28;20054;-64
2021/11/27 10:36:07;;;;;;;1999.90;999.90;;;;;;;3.91;99.47;163439.69;5003229;28;20332;-64
2021/11/27 10:38:55;;;;;;;1999.90;999.90;;;;;;;4.12;98.32;163495.91;5000962;28;20189;-64
2021/11/27 10:41:21;;;;;;;1999.90;999.90;;;;;;;4.33;98.18;163550.75;5000943;28;20466;-64
2021/11/27 10:44:08;;;;;;;1999.90;999.90;;;;;;;4.52;97.76;163602.88;5008091;28;20128;-64
2021/11/27 10:46:38;;;;;;;1999.90;999.90;;;;;;;4.71;97.16;163653.63;5007576;28;20057;-64
2021/11/27 10:49:07;;;;;;;1999.90;999.90;;;;;;;4.57;97.48;163616.59;5007159;28;20132;-64
2021/11/27 10:51:34;;;;;;;1999.90;999.90;;;;;;;4.79;97.02;163674.19;5007862;28;20096;-64
2021/11/27 10:54:04;;;;;;;1999.90;999.90;;;;;;;4.83;96.48;163685.19;5006534;28;20096;-64